Time;durP1;ratioP1;P1;durP2;ratioP2;P2;SDS_P1;SDS_P2;PMS_P1;PMS_P2;Temp;Humidity;BMP_temperature;BMP_pressure;BME280_temperature;BME280_humidity;BME280_pressure;Samples;Min_cycle;Max_cycle;Signal;HPM_P1;HPM_P2
2023/05/01 00:01:36;;;;;;;3.60;1.80;;;;;;;12.55;69.19;101557.59;5096690;28;20031;-86
2023/05/01 00:04:07;;;;;;;4.25;1.92;;;;;;;12.53;69.21;101553.41;5080223;28;20486;-86
2023/05/01 00:06:32;;;;;;;3.77;1.80;;;;;;;12.56;69.18;101542.09;5097189;28;20114;-88
2023/05/01 00:08:58;;;;;;;6.43;2.40;;;;;;;12.53;69.07;101540.63;5097033;28;20121;-86
2023/05/01 00:11:29;;;;;;;4.40;2.30;;;;;;;12.53;69.17;101534.34;5096817;28;20035;-86
2023/05/01 00:13:54;;;;;;;2.97;2.23;;;;;;;12.51;69.18;101529.13;5097456;28;20475;-86
2023/05/01 00:16:22;;;;;;;3.72;1.85;;;;;;;12.48;68.83;101529.56;5096371;28;20104;-87
2023/05/01 00:18:57;;;;;;;4.33;2.00;;;;;;;12.49;69.34;101531.25;5080140;28;20032;-87
2023/05/01 00:21:27;;;;;;;3.30;1.83;;;;;;;12.48;69.10;101528.72;5096959;28;20024;-87
2023/05/01 00:23:53;;;;;;;3.47;2.10;;;;;;;12.48;69.35;101521.38;5097011;28;20071;-87
2023/05/01 00:26:25;;;;;;;5.67;2.20;;;;;;;12.47;68.77;101522.44;5096707;28;20476;-87
2023/05/01 00:28:56;;;;;;;5.23;2.43;;;;;;;12.48;68.90;101512.41;5097139;28;20625;-86
2023/05/01 00:31:24;;;;;;;4.03;2.00;;;;;;;12.46;69.07;101516.16;5097059;28;20027;-87
2023/05/01 00:33:56;;;;;;;2.88;1.85;;;;;;;12.42;69.29;101519.53;5096294;28;20030;-87
2023/05/01 00:36:22;;;;;;;4.70;2.10;;;;;;;12.39;68.88;101518.03;5097423;28;20460;-87
2023/05/01 00:38:47;;;;;;;4.63;1.80;;;;;;;12.37;68.48;101519.31;5114379;28;20109;-86
2023/05/01 00:41:13;;;;;;;4.50;1.97;;;;;;;12.29;68.86;101517.63;5096293;28;20039;-87
2023/05/01 00:43:41;;;;;;;4.35;2.08;;;;;;;12.28;68.60;101508.66;5114838;28;20038;-86
2023/05/01 00:46:10;;;;;;;5.38;2.35;;;;;;;12.28;69.01;101508.66;5114174;28;20092;-87
2023/05/01 00:48:35;;;;;;;4.03;2.27;;;;;;;12.24;69.14;101501.13;5096245;28;20115;-86
2023/05/01 00:51:04;;;;;;;5.03;1.95;;;;;;;12.20;69.51;101499.88;5095951;28;20123;-86
2023/05/01 00:53:32;;;;;;;4.57;2.00;;;;;;;12.20;69.94;101495.25;5095880;28;20540;-86
2023/05/01 00:55:58;;;;;;;8.32;2.25;;;;;;;12.24;70.15;101492.97;5095841;28;20025;-86
2023/05/01 00:58:24;;;;;;;3.55;2.00;;;;;;;12.26;70.33;101491.69;5096408;28;20035;-86
2023/05/01 01:00:53;;;;;;;4.90;2.53;;;;;;;12.30;70.74;101489.38;5096336;28;20056;-86
2023/05/01 01:03:21;;;;;;;4.82;2.30;;;;;;;12.30;70.23;101473.06;5096296;28;20028;-87
2023/05/01 01:05:59;;;;;;;3.58;2.08;;;;;;;12.34;69.71;101482.47;5114166;28;20563;-86
2023/05/01 01:09:04;;;;;;;4.67;2.20;;;;;;;12.35;69.36;101477.88;5095809;28;20118;-86
2023/05/01 01:11:56;;;;;;;5.95;2.50;;;;;;;12.34;70.20;101477.03;5095855;28;20024;-86
2023/05/01 01:14:41;;;;;;;4.72;2.03;;;;;;;12.29;70.32;101466.75;5095684;28;20487;-86
2023/05/01 01:17:30;;;;;;;4.22;2.38;;;;;;;12.29;70.24;101465.94;5095714;28;20022;-86
2023/05/01 01:20:45;;;;;;;4.35;2.25;;;;;;;12.31;69.42;101463.84;5097049;28;20364;-86
2023/05/01 01:23:47;;;;;;;6.43;2.13;;;;;;;12.27;69.73;101465.34;5000414;28;20057;-87
2023/05/01 01:26:19;;;;;;;4.20;1.80;;;;;;;12.23;70.51;101461.34;5103089;28;20097;-86
2023/05/01 01:28:50;;;;;;;4.82;2.20;;;;;;;12.20;70.61;101445.47;5103108;28;20084;-86
2023/05/01 01:31:40;;;;;;;3.13;2.28;;;;;;;12.20;70.35;101448.19;5120538;28;20031;-86
2023/05/01 01:34:17;;;;;;;4.90;2.50;;;;;;;12.17;70.59;101449.44;5102834;28;20374;-86
2023/05/01 01:36:55;;;;;;;4.77;2.30;;;;;;;12.16;70.84;101441.47;5121729;28;20032;-86
2023/05/01 01:39:47;;;;;;;4.28;2.47;;;;;;;12.15;70.88;101435.22;5120827;28;20027;-86
2023/05/01 01:42:18;;;;;;;4.68;2.47;;;;;;;12.10;72.24;101426.84;5102363;28;20030;-86
2023/05/01 01:44:51;;;;;;;5.88;2.65;;;;;;;12.07;72.06;101425.38;5121066;28;20400;-86
2023/05/01 01:47:23;;;;;;;3.95;2.80;;;;;;;12.05;72.13;101424.75;5102048;28;20201;-86
2023/05/01 01:49:54;;;;;;;8.27;2.80;;;;;;;12.06;72.10;101418.28;5103169;28;20110;-86
2023/05/01 01:52:24;;;;;;;5.65;2.63;;;;;;;12.08;71.99;101423.50;5120804;28;20024;-86
2023/05/01 01:54:57;;;;;;;4.32;2.83;;;;;;;12.05;72.26;101413.88;5120623;28;20035;-86
2023/05/01 01:57:26;;;;;;;4.70;2.90;;;;;;;12.01;72.40;101409.06;5102366;28;20020;-86
2023/05/01 01:59:53;;;;;;;4.85;2.63;;;;;;;12.02;72.66;101413.47;5102527;28;20057;-86
2023/05/01 02:02:20;;;;;;;4.50;2.73;;;;;;;12.00;72.05;101410.09;5103496;28;20494;-86
2023/05/01 02:04:50;;;;;;;6.65;2.92;;;;;;;11.98;72.43;101406.78;5101977;28;20028;-86
2023/05/01 02:07:17;;;;;;;6.35;3.08;;;;;;;11.94;72.47;101411.78;5084994;28;20034;-86
2023/05/01 02:09:54;;;;;;;7.78;3.05;;;;;;;11.95;72.74;101405.31;5085851;28;20028;-86
2023/05/01 02:12:25;;;;;;;7.13;3.10;;;;;;;11.95;72.55;101404.47;5101892;28;20029;-86
2023/05/01 02:14:52;;;;;;;7.00;2.80;;;;;;;11.93;72.53;101399.25;5102357;28;20081;-86
2023/05/01 02:17:21;;;;;;;4.30;2.95;;;;;;;11.95;73.01;101399.03;5101674;28;20024;-86
2023/05/01 02:19:52;;;;;;;4.00;2.45;;;;;;;11.95;73.18;101393.59;5101986;28;20068;-86
2023/05/01 02:22:27;;;;;;;6.30;3.08;;;;;;;11.94;72.94;101392.75;5120567;28;20491;-86
2023/05/01 02:24:58;;;;;;;6.78;2.72;;;;;;;11.92;72.87;101390.22;5101844;28;20031;-86
2023/05/01 02:27:42;;;;;;;5.00;2.63;;;;;;;11.95;72.63;101393.59;5101921;28;20032;-86
2023/05/01 02:30:19;;;;;;;9.38;3.05;;;;;;;11.88;74.40;101388.94;5102559;28;20073;-86
2023/05/01 02:32:47;;;;;;;6.25;3.30;;;;;;;11.88;74.71;101378.06;5101356;28;20024;-86
2023/05/01 02:35:12;;;;;;;4.72;3.00;;;;;;;11.88;74.01;101382.69;5097716;28;20476;-86
2023/05/01 02:37:46;;;;;;;9.97;3.40;;;;;;;11.88;74.30;101378.06;5098253;28;20031;-87
2023/05/01 02:40:13;;;;;;;5.88;3.22;;;;;;;11.87;74.00;101375.56;5116747;28;20081;-87
2023/05/01 02:42:42;;;;;;;9.85;3.08;;;;;;;11.84;73.73;101365.13;5116656;28;20035;-87
2023/05/01 02:45:46;;;;;;;7.90;2.92;;;;;;;11.83;73.71;101377.88;5116557;28;20103;-87
2023/05/01 02:48:20;;;;;;;8.13;2.70;;;;;;;11.79;73.71;101365.75;5096491;28;20069;-87
2023/05/01 02:50:48;;;;;;;6.15;3.08;;;;;;;11.75;74.95;101367.22;5116920;28;20043;-87
2023/05/01 02:53:14;;;;;;;7.63;3.63;;;;;;;11.71;74.58;101360.56;5116811;28;20039;-87
2023/05/01 02:55:45;;;;;;;5.43;3.00;;;;;;;11.70;74.46;101354.25;5098526;28;20034;-87
2023/05/01 02:58:20;;;;;;;4.35;3.08;;;;;;;11.71;75.09;101357.84;5098258;28;20024;-86
2023/05/01 03:00:50;;;;;;;6.27;2.93;;;;;;;11.70;74.90;101348.81;5098378;28;20020;-87
2023/05/01 03:03:21;;;;;;;6.40;3.15;;;;;;;11.68;74.56;101347.38;5098310;28;20030;-86
2023/05/01 03:05:52;;;;;;;5.70;2.90;;;;;;;11.67;74.58;101351.97;5082372;28;20043;-87
2023/05/01 03:08:17;;;;;;;6.60;3.20;;;;;;;11.67;74.42;101351.97;5116547;28;20414;-86
2023/05/01 03:10:43;;;;;;;5.40;3.03;;;;;;;11.67;74.73;101348.44;5098354;28;20024;-86
2023/05/01 03:13:10;;;;;;;5.47;3.00;;;;;;;11.63;74.94;101339.84;5097671;28;20023;-86
2023/05/01 03:15:41;;;;;;;4.87;3.17;;;;;;;11.63;75.30;101339.84;5098011;28;20460;-87
2023/05/01 03:18:08;;;;;;;8.32;3.20;;;;;;;11.56;75.02;101328.16;5097599;28;20182;-86
2023/05/01 03:20:33;;;;;;;9.95;3.30;;;;;;;11.58;75.06;101334.22;5116533;28;20027;-86
2023/05/01 03:23:03;;;;;;;7.80;3.40;;;;;;;11.54;76.03;101327.53;5116206;28;20124;-86
2023/05/01 03:25:29;;;;;;;8.47;3.53;;;;;;;11.55;75.79;101330.03;5116352;28;20081;-86
2023/05/01 03:27:57;;;;;;;9.13;3.15;;;;;;;11.52;76.05;101324.19;5097767;28;20429;-86
2023/05/01 03:30:25;;;;;;;8.02;3.55;;;;;;;11.51;76.39;101326.06;5097771;28;20034;-86
2023/05/01 03:32:50;;;;;;;11.57;3.87;;;;;;;11.46;76.60;101315.00;5097468;28;20028;-87
2023/05/01 03:35:16;;;;;;;9.73;3.38;;;;;;;11.46;76.33;101314.16;5081071;28;20086;-86
2023/05/01 03:38:02;;;;;;;5.63;3.17;;;;;;;11.47;75.43;101319.38;5116169;28;20023;-86
2023/05/01 03:40:27;;;;;;;8.00;3.70;;;;;;;11.44;76.34;101317.09;5116442;28;20020;-86
2023/05/01 03:43:03;;;;;;;;;;;;;;;;;;;;;
2023/05/01 03:45:28;;;;;;;5.40;3.25;;;;;;;11.40;76.52;101316.66;5116214;27;20028;-87
2023/05/01 03:47:54;;;;;;;6.47;3.50;;;;;;;11.43;76.77;101320.00;5097173;28;20141;-86
2023/05/01 03:50:19;;;;;;;5.83;3.40;;;;;;;11.39;76.84;101306.81;5097532;28;20028;-86
2023/05/01 03:52:45;;;;;;;6.00;3.70;;;;;;;11.42;76.83;101305.56;5115291;28;20072;-86
2023/05/01 03:55:11;;;;;;;7.20;3.40;;;;;;;11.34;76.45;101301.19;5097599;28;20035;-87
2023/05/01 03:57:46;;;;;;;6.70;3.20;;;;;;;11.33;76.92;101304.13;5115248;28;20096;-86
2023/05/01 04:00:12;;;;;;;7.10;3.58;;;;;;;11.36;76.67;101304.53;5097228;28;20027;-86
2023/05/01 04:02:40;;;;;;;6.53;3.60;;;;;;;11.36;76.82;101306.44;5097068;28;20050;-86
2023/05/01 04:05:08;;;;;;;6.78;3.15;;;;;;;11.36;76.50;101298.28;5096585;28;20031;-86
2023/05/01 04:07:37;;;;;;;5.00;3.42;;;;;;;11.34;76.65;101293.06;5096946;28;20023;-86
2023/05/01 04:10:08;;;;;;;6.47;3.63;;;;;;;11.32;77.67;101307.88;5115220;28;20039;-86
2023/05/01 04:12:35;;;;;;;7.13;3.88;;;;;;;11.29;77.33;101297.44;5097193;28;20031;-86
2023/05/01 04:15:04;;;;;;;6.85;3.70;;;;;;;11.31;77.43;101298.06;5097112;28;20076;-86
2023/05/01 04:17:30;;;;;;;6.38;3.80;;;;;;;11.34;77.01;101303.09;5096790;28;20032;-86
2023/05/01 04:20:18;;;;;;;;;;;;;;;;;;;;;
2023/05/01 04:22:43;;;;;;;9.57;3.70;;;;;;;11.31;78.52;101308.91;5115014;28;20055;-87
2023/05/01 04:25:12;;;;;;;7.28;4.00;;;;;;;11.30;79.23;101307.28;5096397;28;20161;-87
2023/05/01 04:27:37;;;;;;;6.20;4.18;;;;;;;11.24;79.28;101315.19;5096480;28;20019;-87
2023/05/01 04:30:03;;;;;;;5.80;4.10;;;;;;;11.18;78.26;101312.50;5114565;28;20084;-86
2023/05/01 04:32:46;;;;;;;6.17;3.43;;;;;;;11.17;77.57;101308.09;5079630;28;20462;-86
2023/05/01 04:35:12;;;;;;;7.73;3.80;;;;;;;11.19;77.95;101311.41;5096834;28;20386;-87
2023/05/01 04:37:37;;;;;;;7.35;4.10;;;;;;;11.18;78.52;101307.06;5096647;28;20414;-86
2023/05/01 04:40:08;;;;;;;8.60;4.33;;;;;;;11.19;78.26;101306.00;5080018;28;20111;-86
2023/05/01 04:42:42;;;;;;;9.20;4.03;;;;;;;11.19;78.46;101297.84;5097470;28;20032;-86
2023/05/01 04:45:13;;;;;;;7.13;3.93;;;;;;;11.18;78.98;101299.72;5079272;28;20023;-86
2023/05/01 04:47:44;;;;;;;8.75;3.70;;;;;;;11.23;79.12;101302.69;5096464;28;20039;-86
2023/05/01 04:50:10;;;;;;;7.32;4.10;;;;;;;11.22;78.75;101300.16;5096544;28;20023;-86
2023/05/01 04:52:41;;;;;;;7.40;4.00;;;;;;;11.27;78.83;101294.09;5096184;28;20028;-86
2023/05/01 04:55:10;;;;;;;10.65;4.03;;;;;;;11.26;79.07;101295.97;5096175;28;20035;-86
2023/05/01 04:57:35;;;;;;;7.07;3.80;;;;;;;11.31;78.88;101304.34;5096076;28;20020;-86
2023/05/01 05:00:07;;;;;;;8.93;4.10;;;;;;;11.31;78.25;101296.19;5096272;28;20364;-86
2023/05/01 05:02:37;;;;;;;7.22;4.00;;;;;;;11.33;78.24;101293.25;5079297;28;20155;-86
2023/05/01 05:05:03;;;;;;;8.17;3.93;;;;;;;11.34;78.53;101289.50;5079954;28;20071;-86
2023/05/01 05:07:32;;;;;;;9.93;4.22;;;;;;;11.37;78.35;101289.91;5095728;28;20055;-86
2023/05/01 05:10:02;;;;;;;8.68;4.13;;;;;;;11.43;77.78;101296.41;5096222;28;20034;-86
2023/05/01 05:12:38;;;;;;;8.40;4.00;;;;;;;11.46;78.48;101290.53;5095680;28;20028;-86
2023/05/01 05:15:07;;;;;;;11.52;4.25;;;;;;;11.48;77.09;101282.16;5095838;28;20122;-87
2023/05/01 05:17:35;;;;;;;7.10;4.40;;;;;;;11.49;77.23;101290.09;5114101;28;20024;-86
2023/05/01 05:20:01;;;;;;;9.63;3.95;;;;;;;11.52;76.91;101291.59;5096054;28;20563;-86
2023/05/01 05:22:35;;;;;;;11.00;4.33;;;;;;;11.52;76.85;101286.16;5095700;28;20126;-86
2023/05/01 05:25:03;;;;;;;10.02;4.65;;;;;;;11.52;76.58;101286.97;5095490;28;20023;-86
2023/05/01 05:27:35;;;;;;;10.25;4.82;;;;;;;11.52;77.44;101289.69;5095452;28;20028;-86
2023/05/01 05:30:07;;;;;;;9.55;4.32;;;;;;;11.57;76.89;101289.06;5096191;28;20034;-87
2023/05/01 05:32:37;;;;;;;10.52;4.50;;;;;;;11.66;77.06;101290.53;5095754;28;20032;-87
2023/05/01 05:35:06;;;;;;;9.63;4.70;;;;;;;11.73;76.50;101293.22;5079190;28;20039;-88
2023/05/01 05:37:34;;;;;;;7.20;4.13;;;;;;;11.80;76.42;101287.78;5113868;28;20462;-86
2023/05/01 05:39:59;;;;;;;6.97;4.80;;;;;;;11.92;75.97;101288.78;5078897;28;20039;-85
2023/05/01 05:42:28;;;;;;;11.17;4.67;;;;;;;12.02;76.19;101293.81;5113859;28;20080;-87
2023/05/01 05:45:03;;;;;;;10.20;4.72;;;;;;;12.19;75.46;101288.72;5095197;28;20039;-87
2023/05/01 05:47:36;;;;;;;8.32;5.03;;;;;;;12.33;74.61;101282.16;5113787;28;20023;-87
2023/05/01 05:50:05;;;;;;;8.38;4.65;;;;;;;12.45;74.01;101285.88;5095475;28;20036;-85
2023/05/01 05:52:33;;;;;;;7.97;4.77;;;;;;;12.55;72.86;101288.13;5113574;28;20027;-86
2023/05/01 05:55:03;;;;;;;7.90;4.80;;;;;;;12.61;72.86;101284.53;5078752;28;20031;-85
2023/05/01 05:57:36;;;;;;;9.10;4.70;;;;;;;12.71;72.30;101280.50;5114130;28;20104;-85
2023/05/01 06:00:09;;;;;;;7.60;4.82;;;;;;;12.78;72.06;101290.31;5095415;28;20034;-86
2023/05/01 06:02:34;;;;;;;8.70;5.00;;;;;;;12.85;71.84;101286.69;5095278;28;20096;-86
2023/05/01 06:05:03;;;;;;;9.87;4.97;;;;;;;12.88;71.51;101284.34;5113523;28;20459;-86
2023/05/01 06:07:33;;;;;;;9.20;4.93;;;;;;;12.95;71.61;101285.16;5095299;28;20093;-85
2023/05/01 06:10:03;;;;;;;8.90;5.07;;;;;;;13.01;71.55;101291.59;5100004;28;20040;-85
2023/05/01 06:12:32;;;;;;;8.00;4.82;;;;;;;13.00;71.40;101270.88;5118212;28;20032;-86
2023/05/01 06:14:58;;;;;;;7.47;5.30;;;;;;;13.08;71.55;101276.06;5117809;28;20070;-87
2023/05/01 06:17:24;;;;;;;7.18;5.00;;;;;;;13.24;71.49;101276.53;5099105;28;20024;-79
2023/05/01 06:19:52;;;;;;;11.00;5.05;;;;;;;13.39;70.22;101282.53;5117309;28;20040;-80
2023/05/01 06:22:18;;;;;;;8.95;5.32;;;;;;;13.49;69.79;101291.03;5098968;28;20077;-80
2023/05/01 06:24:44;;;;;;;9.97;5.00;;;;;;;13.58;69.22;101279.81;5099465;28;20040;-79
2023/05/01 06:27:10;;;;;;;8.15;4.70;;;;;;;13.69;69.17;101281.81;5082301;28;20371;-80
2023/05/01 06:29:35;;;;;;;8.67;5.23;;;;;;;13.79;68.89;101273.97;5081985;28;20036;-80
2023/05/01 06:32:01;;;;;;;12.02;6.47;;;;;;;13.90;68.88;101285.16;5082148;28;20032;-80
2023/05/01 06:34:26;;;;;;;11.03;5.20;;;;;;;14.01;68.61;101276.22;5098584;28;20034;-76
2023/05/01 06:36:52;;;;;;;8.27;5.25;;;;;;;14.15;67.78;101280.44;5081857;28;20084;-77
2023/05/01 06:39:17;;;;;;;8.70;5.77;;;;;;;14.19;67.67;101276.22;5098594;28;20089;-82
2023/05/01 06:41:46;;;;;;;12.33;5.27;;;;;;;14.32;66.97;101277.94;5082339;28;20379;-79
2023/05/01 06:44:12;;;;;;;12.52;5.50;;;;;;;14.40;66.22;101282.25;5098511;28;20016;-80
2023/05/01 06:46:39;;;;;;;9.37;5.37;;;;;;;14.53;66.49;101278.50;5098522;28;20032;-86
2023/05/01 06:49:07;;;;;;;10.20;5.53;;;;;;;14.61;66.11;101277.34;5116626;28;20088;-87
2023/05/01 06:51:33;;;;;;;10.48;5.90;;;;;;;14.65;65.55;101273.13;5098976;28;20506;-86
2023/05/01 06:53:58;;;;;;;9.53;5.30;;;;;;;14.72;64.24;101268.41;5081850;28;20035;-87
2023/05/01 06:56:27;;;;;;;10.43;5.30;;;;;;;14.73;64.50;101270.06;5081772;28;20038;-86
2023/05/01 06:58:52;;;;;;;9.98;5.68;;;;;;;14.88;64.46;101275.06;5117090;28;20084;-86
2023/05/01 07:01:20;;;;;;;9.98;5.43;;;;;;;14.91;64.19;101274.59;5098461;28;20032;-87
2023/05/01 07:03:46;;;;;;;10.03;5.70;;;;;;;15.02;64.55;101272.97;5098460;28;20047;-86
2023/05/01 07:06:12;;;;;;;10.55;5.80;;;;;;;15.19;64.36;101267.66;5116467;28;20024;-86
2023/05/01 07:08:47;;;;;;;8.17;5.80;;;;;;;15.38;63.29;101266.50;5098188;28;20031;-86
2023/05/01 07:11:12;;;;;;;9.25;5.78;;;;;;;15.48;62.60;101265.06;5081651;28;20023;-86
2023/05/01 07:13:38;;;;;;;11.67;5.90;;;;;;;15.54;62.02;101264.94;5081216;28;20038;-87
2023/05/01 07:16:06;;;;;;;10.57;6.38;;;;;;;15.62;61.50;101263.75;5115707;28;20030;-86
2023/05/01 07:18:40;;;;;;;10.85;6.13;;;;;;;15.74;61.25;101267.31;5098159;28;20028;-87
2023/05/01 07:21:08;;;;;;;12.52;5.75;;;;;;;15.83;60.43;101270.53;5097944;28;20024;-87
2023/05/01 07:23:34;;;;;;;9.40;5.80;;;;;;;15.86;59.62;101269.22;5097516;28;20058;-86
2023/05/01 07:25:59;;;;;;;19.65;5.97;;;;;;;15.82;60.06;101266.13;5097618;28;20032;-87
2023/05/01 07:28:25;;;;;;;12.90;5.33;;;;;;;15.99;59.78;101268.97;5098050;28;20035;-87
2023/05/01 07:30:53;;;;;;;12.07;5.73;;;;;;;16.06;59.58;101266.06;5097402;28;20361;-86
2023/05/01 07:33:25;;;;;;;9.30;5.47;;;;;;;16.12;59.46;101268.69;5081220;28;20032;-85
2023/05/01 07:35:53;;;;;;;12.85;5.70;;;;;;;16.23;58.69;101268.91;5098002;28;20046;-86
2023/05/01 07:38:22;;;;;;;12.57;5.55;;;;;;;16.43;58.50;101280.25;5115736;28;20110;-85
2023/05/01 07:40:52;;;;;;;9.43;5.50;;;;;;;16.44;58.64;101275.59;5115479;28;20107;-86
2023/05/01 07:43:20;;;;;;;11.20;5.78;;;;;;;16.51;58.33;101273.56;5115369;28;20062;-86
2023/05/01 07:45:59;;;;;;;10.50;5.78;;;;;;;16.40;58.43;101282.63;5096702;28;20064;-86
2023/05/01 07:48:25;;;;;;;13.65;6.57;;;;;;;16.42;58.82;101281.31;5097602;28;20028;-85
2023/05/01 07:50:55;;;;;;;14.60;6.40;;;;;;;16.41;57.95;101278.81;5096901;28;20180;-86
2023/05/01 07:53:23;;;;;;;10.27;5.63;;;;;;;16.35;58.29;101279.81;5115232;28;20085;-85
2023/05/01 07:55:51;;;;;;;12.57;6.32;;;;;;;16.12;59.04;101273.31;5097987;28;20126;-85
2023/05/01 07:58:17;;;;;;;10.60;6.25;;;;;;;16.17;58.95;101270.69;5097099;28;20447;-85
2023/05/01 08:00:45;;;;;;;14.50;6.40;;;;;;;16.33;59.54;101280.06;5096849;28;20031;-85
2023/05/01 08:03:11;;;;;;;11.57;6.30;;;;;;;16.59;59.11;101267.66;5115231;28;20023;-86
2023/05/01 08:05:43;;;;;;;9.70;6.73;;;;;;;16.83;59.16;101270.31;5097412;28;20028;-86
2023/05/01 08:08:12;;;;;;;14.48;6.25;;;;;;;16.98;58.00;101267.03;5097065;28;20096;-86
2023/05/01 08:10:37;;;;;;;12.48;6.15;;;;;;;17.18;57.41;101264.63;5114813;28;20444;-87
2023/05/01 08:13:03;;;;;;;13.07;5.93;;;;;;;17.39;57.20;101259.47;5096393;28;20059;-87
2023/05/01 08:15:41;;;;;;;11.02;6.72;;;;;;;17.56;57.08;101267.66;5096576;28;20043;-87
2023/05/01 08:18:08;;;;;;;14.40;6.33;;;;;;;17.49;56.34;101262.34;5081895;28;20031;-86
2023/05/01 08:20:52;;;;;;;12.20;6.63;;;;;;;17.52;57.52;101270.09;5096857;28;20028;-86
2023/05/01 08:23:25;;;;;;;11.38;6.50;;;;;;;17.44;56.52;101258.69;5096268;28;20044;-86
2023/05/01 08:25:53;;;;;;;11.38;6.43;;;;;;;17.65;55.68;101262.56;5096732;28;20116;-86
2023/05/01 08:28:24;;;;;;;11.50;6.43;;;;;;;17.82;53.71;101262.50;5096260;28;20204;-86
2023/05/01 08:30:50;;;;;;;11.17;6.87;;;;;;;17.91;54.66;101258.28;5096369;28;20100;-86
2023/05/01 08:33:16;;;;;;;9.45;6.88;;;;;;;18.15;54.67;101256.09;5096058;28;20468;-86
2023/05/01 08:35:47;;;;;;;11.03;5.97;;;;;;;18.36;53.78;101259.91;5114433;28;20047;-87
2023/05/01 08:38:15;;;;;;;10.98;6.90;;;;;;;18.51;52.96;101261.16;5096619;28;20058;-87
2023/05/01 08:40:50;;;;;;;9.90;5.55;;;;;;;18.64;51.10;101259.94;5114208;28;20027;-87
2023/05/01 08:43:18;;;;;;;13.02;6.32;;;;;;;18.64;51.41;101263.50;5114341;28;20031;-87
2023/05/01 08:46:00;;;;;;;10.90;5.90;;;;;;;18.54;50.66;101266.16;5096526;28;20032;-89
2023/05/01 08:48:29;;;;;;;9.50;5.63;;;;;;;18.57;50.14;101266.47;5096658;28;20027;-87
2023/05/01 08:51:19;;;;;;;;;;;;;;;;;;;;;
2023/05/01 08:53:59;;;;;;;;;;;;;;;;;;;;;
2023/05/01 08:56:25;;;;;;;8.18;6.30;;;;;;;18.56;50.37;101273.06;5115402;28;20041;-87
2023/05/01 08:59:01;;;;;;;11.03;6.30;;;;;;;18.54;50.71;101264.25;5079763;28;20515;-86
2023/05/01 09:01:32;;;;;;;12.27;8.05;;;;;;;18.72;50.81;101276.78;5096866;28;20510;-86
2023/05/01 09:04:02;;;;;;;9.93;6.03;;;;;;;18.91;50.85;101270.94;5096330;28;20069;-88
2023/05/01 09:06:31;;;;;;;9.88;6.22;;;;;;;18.87;51.29;101265.16;5096441;28;20464;-86
2023/05/01 09:09:00;;;;;;;7.17;6.13;;;;;;;19.01;49.91;101276.53;5095736;28;20032;-87
2023/05/01 09:11:29;;;;;;;12.52;6.15;;;;;;;19.06;50.13;101272.97;5114168;28;20497;-86
2023/05/01 09:13:59;;;;;;;11.23;6.22;;;;;;;19.19;51.09;101271.72;5080143;28;20030;-86
2023/05/01 09:16:24;;;;;;;14.57;6.25;;;;;;;19.21;50.17;101266.81;5095456;28;20027;-86
2023/05/01 09:18:53;;;;;;;15.50;6.30;;;;;;;19.11;49.86;101273.03;5114405;28;20451;-86
2023/05/01 09:21:24;;;;;;;9.77;6.50;;;;;;;19.24;50.43;101271.78;5095526;28;20035;-87
2023/05/01 09:23:50;;;;;;;14.00;6.80;;;;;;;19.14;49.81;101267.00;5078896;28;20461;-87
2023/05/01 09:26:16;;;;;;;9.52;6.40;;;;;;;19.44;49.04;101269.19;5095375;28;20031;-86
2023/05/01 09:28:50;;;;;;;10.93;6.17;;;;;;;19.74;48.69;101278.72;5095401;28;20028;-86
2023/05/01 09:31:27;;;;;;;9.25;6.50;;;;;;;20.03;48.34;101264.53;5113590;28;20113;-86
2023/05/01 09:34:02;;;;;;;9.45;6.07;;;;;;;20.32;47.71;101264.94;5096152;28;20032;-86
2023/05/01 09:36:36;;;;;;;9.98;6.22;;;;;;;20.59;46.22;101263.91;5114048;28;20084;-87
2023/05/01 09:39:05;;;;;;;11.40;6.00;;;;;;;20.67;45.50;101265.34;5095480;28;20122;-87
2023/05/01 09:41:32;;;;;;;15.02;6.95;;;;;;;20.55;44.68;101267.47;5095530;28;20490;-86
2023/05/01 09:43:58;;;;;;;10.35;6.13;;;;;;;20.73;45.66;101267.00;5116627;28;20031;-86
2023/05/01 09:46:25;;;;;;;8.82;6.35;;;;;;;21.02;45.05;101267.28;5117723;28;20517;-86
2023/05/01 09:48:57;;;;;;;10.93;6.72;;;;;;;21.44;44.00;101265.31;5099209;28;20102;-87
2023/05/01 09:51:29;;;;;;;10.00;5.80;;;;;;;22.12;43.30;101266.00;5099261;28;20055;-86
2023/05/01 09:54:04;;;;;;;9.13;6.15;;;;;;;22.61;41.55;101262.41;5098779;28;20036;-87
2023/05/01 09:56:32;;;;;;;8.90;6.18;;;;;;;22.93;40.91;101261.91;5118372;28;20054;-87
2023/05/01 09:59:33;;;;;;;10.38;6.57;;;;;;;23.30;41.31;101268.81;5099037;28;20108;-87
2023/05/01 10:01:59;;;;;;;10.35;6.38;;;;;;;23.09;39.71;101273.69;5117581;28;20519;-87
2023/05/01 10:04:40;;;;;;;10.07;6.50;;;;;;;22.98;40.35;101274.06;5082013;28;20023;-87
2023/05/01 10:07:15;;;;;;;11.68;6.75;;;;;;;22.62;40.31;101272.38;5099770;28;20448;-87
2023/05/01 10:09:41;;;;;;;9.45;6.20;;;;;;;22.06;40.53;101267.94;5117343;28;20035;-87
2023/05/01 10:12:06;;;;;;;7.93;6.27;;;;;;;21.93;40.67;101265.78;5117378;28;20425;-86
2023/05/01 10:15:10;;;;;;;11.00;6.00;;;;;;;22.03;41.81;101271.28;5098946;28;20036;-86
2023/05/01 10:17:37;;;;;;;9.70;6.10;;;;;;;22.02;40.42;101273.19;5098262;28;20142;-87
2023/05/01 10:20:04;;;;;;;10.77;6.33;;;;;;;21.86;41.35;101266.88;5099071;28;20531;-86
2023/05/01 10:22:38;;;;;;;9.40;6.32;;;;;;;22.31;40.69;101275.28;5081462;28;20055;-86
2023/05/01 10:25:10;;;;;;;14.23;6.53;;;;;;;22.72;40.08;101272.31;5098345;28;20125;-87
2023/05/01 10:27:39;;;;;;;8.57;6.47;;;;;;;23.19;38.19;101281.09;5099115;28;20451;-86
2023/05/01 10:30:06;;;;;;;10.35;6.50;;;;;;;23.75;38.40;101278.88;5099147;28;20375;-87
2023/05/01 10:32:36;;;;;;;10.73;6.30;;;;;;;23.72;38.01;101283.06;5099056;28;20031;-87
2023/05/01 10:35:07;;;;;;;11.23;6.40;;;;;;;23.55;38.21;101275.22;5098953;28;20460;-86
2023/05/01 10:37:57;;;;;;;13.90;6.95;;;;;;;23.70;38.90;101278.94;5116898;28;20027;-87
2023/05/01 10:40:38;;;;;;;9.38;6.53;;;;;;;23.62;38.77;101289.56;5098587;28;20027;-87
2023/05/01 10:43:15;;;;;;;9.43;6.43;;;;;;;23.70;39.64;101287.25;5116896;28;20024;-86
2023/05/01 10:45:45;;;;;;;11.33;6.23;;;;;;;23.67;38.64;101277.59;5116908;28;20464;-87
2023/05/01 10:48:32;;;;;;;7.93;5.95;;;;;;;23.57;38.80;101280.47;5098810;28;20032;-86
2023/05/01 10:51:19;;;;;;;14.15;6.88;;;;;;;23.43;38.80;101289.47;5117200;28;20114;-86
2023/05/01 10:53:46;;;;;;;7.35;6.18;;;;;;;23.47;38.03;101290.53;5097680;28;20031;-87
2023/05/01 10:56:32;;;;;;;12.63;6.90;;;;;;;23.52;39.10;101294.34;5097370;28;20081;-86
2023/05/01 10:59:03;;;;;;;10.27;6.63;;;;;;;23.89;37.56;101298.44;5098578;28;20110;-87
2023/05/01 11:01:38;;;;;;;11.63;6.88;;;;;;;24.10;37.08;101293.47;5098155;28;20467;-86
2023/05/01 11:04:10;;;;;;;12.20;6.63;;;;;;;23.95;37.05;101286.19;5116045;28;20107;-87
2023/05/01 11:07:03;;;;;;;12.93;6.65;;;;;;;23.96;36.26;101285.03;5098312;28;20127;-86
2023/05/01 11:09:44;;;;;;;9.23;6.30;;;;;;;23.96;36.96;101285.03;5097950;28;20023;-86
2023/05/01 11:12:35;;;;;;;10.90;6.27;;;;;;;23.98;37.71;101282.81;5098871;28;20084;-87
2023/05/01 11:15:07;;;;;;;9.60;6.50;;;;;;;24.21;36.14;101283.06;5097836;28;20024;-87
2023/05/01 11:17:42;;;;;;;10.43;6.60;;;;;;;24.82;35.05;101287.78;5115979;28;20106;-87
2023/05/01 11:20:37;;;;;;;13.07;6.50;;;;;;;25.51;35.40;101287.22;5097635;28;20039;-87
2023/05/01 11:23:06;;;;;;;12.57;7.40;;;;;;;25.21;34.01;101291.31;5054865;28;20039;-87
2023/05/01 11:26:04;;;;;;;10.00;7.20;;;;;;;25.24;34.45;101298.22;5116791;28;20112;-87
2023/05/01 11:28:37;;;;;;;10.27;7.00;;;;;;;26.35;32.32;101284.44;5097591;28;20031;-87
2023/05/01 11:31:05;;;;;;;8.23;6.50;;;;;;;27.68;30.86;101283.13;5098071;28;20125;-88
2023/05/01 11:33:37;;;;;;;12.48;6.57;;;;;;;29.11;29.11;101279.91;5098133;28;20036;-87
2023/05/01 11:40:03;;;;;;;8.80;5.63;;;;;;;31.70;25.62;101282.78;5115761;28;20042;-87
2023/05/01 11:42:34;;;;;;;7.63;5.90;;;;;;;31.79;24.27;101280.72;5097924;28;20027;-87
2023/05/01 11:45:09;;;;;;;8.77;5.93;;;;;;;32.23;24.33;101288.53;5097831;28;20027;-86
2023/05/01 11:47:38;;;;;;;7.60;5.50;;;;;;;32.76;22.83;101283.75;5098293;28;20031;-87
2023/05/01 11:53:14;;;;;;;13.93;4.87;;;;;;;34.29;21.48;101273.25;5116705;28;20050;-87